createdAt,value
2022-12-11T00:01:14.832Z,19.44
2022-12-11T00:03:59.774Z,20.12
2022-12-11T00:06:44.716Z,20.39
2022-12-11T00:09:29.677Z,20.65
2022-12-11T00:12:14.607Z,21.65
2022-12-11T00:14:59.633Z,21.52
2022-12-11T00:17:44.463Z,21.73
2022-12-11T00:20:29.454Z,21.28
2022-12-11T00:23:14.387Z,21.46
2022-12-11T00:25:59.190Z,21.97
2022-12-11T00:28:44.139Z,21.79
2022-12-11T00:31:29.016Z,21.67
2022-12-11T00:34:13.917Z,21.22
2022-12-11T00:36:58.951Z,20.95
2022-12-11T00:39:43.983Z,21.54
2022-12-11T00:42:28.786Z,20.05
2022-12-11T00:45:13.809Z,20.27
2022-12-11T00:47:58.673Z,20.40
2022-12-11T00:50:43.662Z,19.08
2022-12-11T00:53:28.558Z,18.26
2022-12-11T00:56:13.463Z,17.66
2022-12-11T00:58:58.552Z,17.10
2022-12-11T01:01:43.357Z,17.50
2022-12-11T01:04:28.347Z,17.10
2022-12-11T01:07:13.180Z,16.88
2022-12-11T01:09:58.122Z,17.02
2022-12-11T01:12:42.986Z,17.17
2022-12-11T01:15:27.891Z,17.03
2022-12-11T01:18:12.784Z,17.15
2022-12-11T01:20:57.527Z,18.25
2022-12-11T01:23:42.510Z,18.25
2022-12-11T01:26:27.364Z,17.19
2022-12-11T01:29:12.285Z,17.03
2022-12-11T01:31:57.070Z,17.99
2022-12-11T01:34:41.950Z,18.09
2022-12-11T01:37:26.755Z,17.71
2022-12-11T01:40:11.853Z,17.67
2022-12-11T01:42:56.644Z,18.22
2022-12-11T01:45:41.717Z,18.00
2022-12-11T01:48:26.774Z,18.81
2022-12-11T01:51:11.578Z,18.64
2022-12-11T01:53:56.587Z,18.35
2022-12-11T01:56:41.448Z,17.99
2022-12-11T01:59:26.463Z,18.03
2022-12-11T02:02:11.385Z,18.07
2022-12-11T02:04:56.233Z,17.18
2022-12-11T02:07:41.152Z,17.56
2022-12-11T02:10:26.141Z,18.61
2022-12-11T02:13:11.100Z,19.22
2022-12-11T02:15:55.864Z,19.47
2022-12-11T02:18:40.889Z,18.98
2022-12-11T02:21:25.748Z,18.38
2022-12-11T02:24:10.840Z,18.98
2022-12-11T02:26:55.678Z,18.31
2022-12-11T02:29:40.625Z,18.17
2022-12-11T02:32:25.542Z,18.76
2022-12-11T02:35:10.757Z,19.20
2022-12-11T02:37:56.060Z,19.37
2022-12-11T02:40:40.925Z,19.56
2022-12-11T02:43:25.791Z,20.42
2022-12-11T02:46:10.734Z,19.48
2022-12-11T02:48:55.658Z,19.92
2022-12-11T02:51:40.698Z,20.91
2022-12-11T02:54:25.397Z,19.63
2022-12-11T02:57:10.350Z,20.67
2022-12-11T02:59:55.285Z,20.99
2022-12-11T03:02:40.306Z,21.09
2022-12-11T03:05:25.087Z,20.42
2022-12-11T03:08:10.166Z,20.63
2022-12-11T03:10:54.920Z,21.01
2022-12-11T03:13:39.713Z,21.23
2022-12-11T03:16:24.538Z,21.07
2022-12-11T03:19:09.457Z,21.54
2022-12-11T03:21:54.308Z,21.59
2022-12-11T03:24:39.008Z,21.86
2022-12-11T03:27:23.968Z,20.79
2022-12-11T03:30:08.816Z,21.19
2022-12-11T03:32:53.808Z,22.15
2022-12-11T03:35:38.635Z,20.59
2022-12-11T03:38:23.473Z,21.65
2022-12-11T03:41:08.349Z,21.44
2022-12-11T03:43:53.281Z,22.70
2022-12-11T03:46:38.270Z,22.90
2022-12-11T03:49:23.260Z,22.27
2022-12-11T03:52:08.219Z,23.19
2022-12-11T03:54:53.143Z,21.24
2022-12-11T03:57:38.210Z,21.42
2022-12-11T04:00:23.087Z,20.65
2022-12-11T04:03:12.920Z,21.25
2022-12-11T04:05:58.864Z,21.45
2022-12-11T04:08:43.656Z,21.28
2022-12-11T04:11:28.538Z,22.80
2022-12-11T04:14:13.323Z,22.32
2022-12-11T04:16:58.118Z,22.11
2022-12-11T04:19:42.969Z,21.76
2022-12-11T04:22:27.745Z,23.10
2022-12-11T04:25:12.780Z,22.08
2022-12-11T04:27:57.958Z,22.47
2022-12-11T04:30:42.790Z,22.13
2022-12-11T04:33:27.677Z,23.24
2022-12-11T04:36:12.728Z,21.83
2022-12-11T04:38:57.539Z,20.50
2022-12-11T04:41:42.484Z,21.21
2022-12-11T04:44:27.333Z,21.68
2022-12-11T04:47:12.141Z,22.28
2022-12-11T04:49:57.061Z,21.52
2022-12-11T04:52:41.875Z,21.78
2022-12-11T04:55:26.845Z,21.71
2022-12-11T04:58:11.775Z,20.97
2022-12-11T05:00:56.573Z,20.39
2022-12-11T05:03:41.565Z,20.13
2022-12-11T05:06:26.489Z,20.29
2022-12-11T05:09:11.249Z,20.27
2022-12-11T05:11:56.149Z,20.60
2022-12-11T05:14:41.178Z,20.50
2022-12-11T05:17:26.009Z,19.98
2022-12-11T05:20:11.066Z,20.59
2022-12-11T05:22:55.908Z,20.81
2022-12-11T05:25:40.976Z,19.89
2022-12-11T05:28:25.811Z,19.89
2022-12-11T05:31:10.764Z,19.73
2022-12-11T05:33:55.680Z,19.37
2022-12-11T05:36:40.592Z,19.37
2022-12-11T05:39:25.402Z,18.67
2022-12-11T05:42:10.226Z,19.20
2022-12-11T05:44:55.142Z,19.49
2022-12-11T05:47:39.878Z,19.48
2022-12-11T05:50:24.762Z,19.82
2022-12-11T05:53:09.679Z,20.81
2022-12-11T05:55:54.553Z,20.53
2022-12-11T05:58:39.381Z,21.03
2022-12-11T06:01:24.348Z,20.57
2022-12-11T06:04:09.304Z,19.63
2022-12-11T06:06:54.292Z,20.90
2022-12-11T06:09:39.276Z,20.36
2022-12-11T06:12:24.160Z,21.52
2022-12-11T06:15:09.505Z,20.84
2022-12-11T06:17:54.873Z,21.54
2022-12-11T06:20:39.811Z,21.61
2022-12-11T06:23:24.647Z,21.51
2022-12-11T06:26:09.514Z,20.36
2022-12-11T06:28:54.561Z,19.88
2022-12-11T06:31:39.577Z,20.04
2022-12-11T06:34:24.853Z,19.66
2022-12-11T06:37:09.728Z,19.41
2022-12-11T06:39:54.714Z,18.91
2022-12-11T06:42:39.602Z,19.15
2022-12-11T06:45:24.511Z,19.20
2022-12-11T06:48:09.438Z,18.77
2022-12-11T06:50:54.194Z,18.07
2022-12-11T06:53:39.215Z,18.36
2022-12-11T06:56:24.128Z,18.85
2022-12-11T06:59:09.103Z,19.11
2022-12-11T07:01:54.481Z,18.52
2022-12-11T07:04:39.911Z,18.07
2022-12-11T07:07:24.898Z,18.97
2022-12-11T07:10:09.802Z,19.36
2022-12-11T07:12:54.739Z,20.42
2022-12-11T07:15:40.616Z,20.19
2022-12-11T07:18:25.627Z,20.64
2022-12-11T07:21:10.463Z,20.96
2022-12-11T07:23:55.295Z,21.86
2022-12-11T07:26:40.239Z,21.82
2022-12-11T07:29:25.170Z,22.30
2022-12-11T07:32:10.354Z,21.29
2022-12-11T07:34:55.664Z,21.67
2022-12-11T07:37:40.761Z,22.68
2022-12-11T07:40:25.711Z,22.16
2022-12-11T07:43:10.613Z,22.58
2022-12-11T07:45:55.571Z,21.43
2022-12-11T07:48:40.449Z,21.20
2022-12-11T07:51:25.412Z,20.32
2022-12-11T07:54:10.374Z,20.22
2022-12-11T07:56:55.224Z,18.29
2022-12-11T07:59:40.078Z,18.64
2022-12-11T08:02:25.211Z,18.50
2022-12-11T08:05:10.422Z,17.91
2022-12-11T08:07:55.956Z,17.35
2022-12-11T08:10:40.821Z,17.86
2022-12-11T08:13:25.811Z,17.48
2022-12-11T08:16:10.730Z,17.55
2022-12-11T08:18:55.534Z,16.19
2022-12-11T08:21:40.607Z,14.96
2022-12-11T08:24:25.503Z,14.09
2022-12-11T08:27:10.400Z,12.28
2022-12-11T08:29:55.298Z,11.31
2022-12-11T08:32:40.230Z,11.41
2022-12-11T08:35:25.077Z,10.85
2022-12-11T08:38:09.948Z,10.17
2022-12-11T08:40:54.965Z,10.07
2022-12-11T08:43:39.866Z,10.85
2022-12-11T08:46:24.827Z,9.87
2022-12-11T08:49:10.037Z,10.11
2022-12-11T08:51:54.921Z,9.48
2022-12-11T08:54:39.740Z,9.36
2022-12-11T08:57:24.740Z,9.74
2022-12-11T09:00:09.705Z,12.79
2022-12-11T09:02:54.641Z,12.30
2022-12-11T09:05:40.125Z,12.83
2022-12-11T09:08:25.101Z,12.07
2022-12-11T09:11:10.101Z,12.13
2022-12-11T09:13:55.019Z,12.65
2022-12-11T09:16:39.980Z,12.40
2022-12-11T09:19:29.207Z,11.87
2022-12-11T09:22:17.144Z,11.58
2022-12-11T09:25:02.059Z,11.60
2022-12-11T09:27:47.028Z,12.13
2022-12-11T09:30:32.050Z,12.84
2022-12-11T09:33:17.002Z,11.23
2022-12-11T09:36:01.833Z,11.44
2022-12-11T09:38:46.699Z,11.43
2022-12-11T09:41:31.502Z,11.75
2022-12-11T09:44:16.500Z,12.51
2022-12-11T09:47:01.353Z,12.66
2022-12-11T09:49:46.056Z,12.25
2022-12-11T09:52:31.075Z,12.41
2022-12-11T09:55:16.070Z,12.22
2022-12-11T09:58:01.106Z,12.28
2022-12-11T10:00:45.998Z,11.86
2022-12-11T10:03:31.003Z,12.17
2022-12-11T10:06:15.817Z,12.17
2022-12-11T10:09:00.757Z,11.90
2022-12-11T10:11:45.553Z,11.69
2022-12-11T10:14:30.490Z,11.31
2022-12-11T10:17:16.002Z,11.24
2022-12-11T10:20:00.897Z,11.50
2022-12-11T10:22:45.798Z,11.50
2022-12-11T10:25:30.647Z,10.71
2022-12-11T10:28:15.561Z,10.69
2022-12-11T10:31:00.518Z,11.14
2022-12-11T10:33:45.371Z,10.86
2022-12-11T10:36:30.234Z,11.29
2022-12-11T10:39:15.021Z,11.53
2022-12-11T10:42:00.057Z,12.34
2022-12-11T10:44:45.269Z,11.73
2022-12-11T10:47:30.373Z,11.83
2022-12-11T10:50:15.299Z,10.56
2022-12-11T10:53:00.264Z,12.50
2022-12-11T10:55:45.219Z,10.35
2022-12-11T10:58:30.118Z,9.66
2022-12-11T11:01:15.244Z,10.02
2022-12-11T11:04:00.649Z,10.10
2022-12-11T11:06:45.636Z,10.40
2022-12-11T11:09:30.605Z,10.50
2022-12-11T11:12:15.506Z,10.63
2022-12-11T11:15:00.322Z,9.37
2022-12-11T11:17:54.246Z,8.97
2022-12-11T11:20:39.975Z,9.21
2022-12-11T11:23:25.068Z,8.78
2022-12-11T11:26:09.932Z,9.30
2022-12-11T11:28:54.980Z,10.36
2022-12-11T11:31:39.806Z,10.51
2022-12-11T11:34:24.718Z,11.89
2022-12-11T11:37:09.511Z,11.73
2022-12-11T11:39:54.452Z,12.87
2022-12-11T11:42:39.461Z,18.17
2022-12-11T11:45:24.327Z,21.97
2022-12-11T11:48:11.549Z,14.15
2022-12-11T11:50:56.546Z,14.62
2022-12-11T11:53:41.520Z,14.57
2022-12-11T11:56:26.439Z,13.79
2022-12-11T11:59:11.250Z,13.30
2022-12-11T12:01:56.150Z,13.89
2022-12-11T12:04:41.002Z,13.53
2022-12-11T12:07:25.933Z,13.12
2022-12-11T12:10:10.804Z,12.53
2022-12-11T12:12:56.173Z,12.01
2022-12-11T12:15:41.067Z,12.00
2022-12-11T12:18:25.957Z,12.56
2022-12-11T12:21:10.837Z,11.50
2022-12-11T12:23:55.689Z,11.25
2022-12-11T12:26:40.560Z,11.29
2022-12-11T12:29:25.518Z,11.66
2022-12-11T12:32:10.531Z,12.31
2022-12-11T12:34:55.463Z,12.14
2022-12-11T12:37:40.333Z,12.52
2022-12-11T12:40:25.137Z,12.61
2022-12-11T12:43:10.057Z,12.65
2022-12-11T12:45:55.058Z,12.70
2022-12-11T12:48:39.878Z,13.65
2022-12-11T12:51:24.833Z,13.81
2022-12-11T12:54:12.469Z,14.52
2022-12-11T12:56:57.745Z,15.29
2022-12-11T12:59:42.518Z,14.55
2022-12-11T13:02:27.437Z,14.42
2022-12-11T13:05:12.723Z,15.62
2022-12-11T13:07:57.900Z,15.34
2022-12-11T13:10:42.860Z,15.61
2022-12-11T13:13:27.678Z,14.99
2022-12-11T13:16:12.684Z,15.72
2022-12-11T13:18:57.428Z,15.40
2022-12-11T13:21:42.298Z,15.13
2022-12-11T13:24:27.308Z,15.59
2022-12-11T13:27:11.994Z,15.19
2022-12-11T13:29:56.923Z,15.67
2022-12-11T13:32:41.832Z,16.16
2022-12-11T13:35:26.763Z,15.97
2022-12-11T13:38:11.546Z,14.82
2022-12-11T13:40:56.498Z,15.72
2022-12-11T13:43:41.221Z,15.11
2022-12-11T13:46:26.053Z,15.13
2022-12-11T13:49:10.925Z,15.23
2022-12-11T13:51:55.914Z,15.08
2022-12-11T13:54:40.769Z,16.82
2022-12-11T13:57:25.659Z,13.78
2022-12-11T14:00:15.825Z,13.85
2022-12-11T14:03:02.556Z,14.55
2022-12-11T14:05:47.655Z,14.39
2022-12-11T14:08:33.664Z,15.09
2022-12-11T14:11:18.458Z,15.22
2022-12-11T14:14:03.420Z,15.65
2022-12-11T14:16:48.316Z,15.45
2022-12-11T14:19:33.149Z,15.49
2022-12-11T14:22:18.160Z,15.28
2022-12-11T14:25:03.064Z,21.04
2022-12-11T14:27:48.031Z,18.36
2022-12-11T14:30:32.992Z,19.45
2022-12-11T14:33:17.901Z,18.75
2022-12-11T14:36:02.727Z,21.76
2022-12-11T14:38:47.619Z,17.90
2022-12-11T14:41:32.519Z,18.44
2022-12-11T14:44:17.461Z,18.50
2022-12-11T14:47:02.618Z,17.34
2022-12-11T14:49:47.518Z,18.04
2022-12-11T14:52:32.509Z,17.83
2022-12-11T14:55:17.468Z,18.18
2022-12-11T14:58:02.478Z,17.59
2022-12-11T15:00:47.283Z,18.35
2022-12-11T15:03:32.301Z,19.58
2022-12-11T15:06:17.289Z,22.75
2022-12-11T15:09:02.312Z,24.15
2022-12-11T15:11:47.242Z,28.57
2022-12-11T15:14:32.124Z,20.47
2022-12-11T15:17:17.119Z,22.36
2022-12-11T15:20:01.932Z,19.27
2022-12-11T15:22:46.798Z,20.09
2022-12-11T15:25:31.681Z,23.88
2022-12-11T15:28:16.511Z,21.50
2022-12-11T15:31:01.293Z,22.14
2022-12-11T15:33:46.168Z,22.46
2022-12-11T15:36:31.237Z,26.15
2022-12-11T15:39:16.096Z,24.60
2022-12-11T15:42:01.055Z,32.28
2022-12-11T15:44:45.874Z,37.67
2022-12-11T15:47:30.927Z,25.50
2022-12-11T15:50:15.717Z,26.06
2022-12-11T15:53:00.621Z,26.56
2022-12-11T15:55:45.497Z,30.74
2022-12-11T15:58:30.510Z,28.38
2022-12-11T16:01:15.501Z,26.94
2022-12-11T16:04:04.645Z,31.42
2022-12-11T16:06:49.776Z,27.70
2022-12-11T16:09:34.710Z,25.80
2022-12-11T16:12:19.638Z,27.86
2022-12-11T16:15:04.569Z,34.84
2022-12-11T16:17:49.456Z,27.08
2022-12-11T16:20:34.535Z,30.34
2022-12-11T16:23:19.440Z,40.17
2022-12-11T16:26:04.305Z,36.48
2022-12-11T16:28:49.225Z,29.53
2022-12-11T16:31:34.343Z,24.97
2022-12-11T16:34:19.260Z,23.17
2022-12-11T16:37:04.075Z,23.29
2022-12-11T16:39:49.125Z,24.62
2022-12-11T16:42:33.862Z,25.94
2022-12-11T16:45:18.860Z,27.24
2022-12-11T16:48:03.683Z,25.94
2022-12-11T16:50:48.600Z,24.89
2022-12-11T16:53:33.393Z,30.56
2022-12-11T16:56:18.315Z,32.25
2022-12-11T16:59:03.124Z,27.75
2022-12-11T17:01:48.058Z,24.19
2022-12-11T17:04:32.974Z,30.38
2022-12-11T17:07:17.883Z,27.06
2022-12-11T17:10:02.697Z,24.57
2022-12-11T17:12:47.724Z,25.40
2022-12-11T17:15:32.683Z,23.43
2022-12-11T17:18:18.145Z,21.59
2022-12-11T17:21:02.974Z,22.19
2022-12-11T17:23:47.955Z,22.94
2022-12-11T17:26:32.970Z,23.31
2022-12-11T17:29:17.833Z,25.02
2022-12-11T17:32:02.594Z,25.90
2022-12-11T17:34:47.675Z,24.86
2022-12-11T17:37:32.661Z,24.27
2022-12-11T17:40:17.546Z,24.35
2022-12-11T17:43:02.458Z,24.47
2022-12-11T17:45:47.378Z,24.58
2022-12-11T17:48:32.337Z,24.50
2022-12-11T17:51:17.149Z,22.98
2022-12-11T17:54:02.047Z,22.66
2022-12-11T17:56:47.003Z,21.88
2022-12-11T17:59:31.853Z,20.25
2022-12-11T18:02:16.785Z,20.75
2022-12-11T18:05:01.531Z,21.47
2022-12-11T18:07:46.427Z,21.43
2022-12-11T18:10:31.238Z,20.83
2022-12-11T18:13:16.177Z,20.19
2022-12-11T18:16:01.112Z,20.25
2022-12-11T18:18:45.973Z,20.98
2022-12-11T18:21:30.785Z,20.66
2022-12-11T18:24:15.586Z,20.50
2022-12-11T18:27:00.351Z,19.74
2022-12-11T18:29:45.227Z,19.94
2022-12-11T18:32:30.132Z,19.06
2022-12-11T18:35:15.103Z,19.01
2022-12-11T18:37:59.964Z,20.46
2022-12-11T18:40:44.742Z,21.02
2022-12-11T18:43:29.844Z,21.71
2022-12-11T18:46:14.641Z,21.84
2022-12-11T18:48:59.671Z,22.04
2022-12-11T18:51:44.555Z,22.55
2022-12-11T18:54:29.465Z,22.90
2022-12-11T18:57:14.235Z,23.15
2022-12-11T18:59:59.380Z,22.82
2022-12-11T19:02:44.883Z,22.97
2022-12-11T19:05:29.706Z,23.37
2022-12-11T19:08:14.628Z,22.98
2022-12-11T19:10:59.406Z,23.20
2022-12-11T19:13:44.390Z,23.36
2022-12-11T19:16:29.371Z,23.78
2022-12-11T19:19:14.253Z,24.14
2022-12-11T19:21:59.128Z,23.87
2022-12-11T19:24:44.124Z,23.12
2022-12-11T19:27:28.922Z,23.64
2022-12-11T19:30:13.925Z,23.72
2022-12-11T19:32:58.894Z,23.98
2022-12-11T19:35:43.773Z,24.24
2022-12-11T19:38:28.758Z,24.14
2022-12-11T19:41:13.623Z,24.98
2022-12-11T19:43:58.661Z,24.30
2022-12-11T19:46:43.567Z,24.22
2022-12-11T19:49:28.466Z,24.13
2022-12-11T19:52:13.406Z,24.53
2022-12-11T19:54:58.322Z,24.99
2022-12-11T19:57:43.393Z,26.27
2022-12-11T20:00:28.314Z,26.85
2022-12-11T20:03:13.197Z,27.37
2022-12-11T20:05:57.918Z,27.05
2022-12-11T20:08:45.739Z,27.72
2022-12-11T20:11:31.473Z,27.28
2022-12-11T20:14:16.506Z,42.42
2022-12-11T20:17:11.907Z,35.72
2022-12-11T20:19:57.336Z,28.10
2022-12-11T20:22:42.372Z,26.54
2022-12-11T20:25:27.346Z,26.18
2022-12-11T20:28:12.231Z,24.93
2022-12-11T20:30:57.006Z,25.37
2022-12-11T20:33:41.964Z,26.26
2022-12-11T20:36:26.788Z,25.21
2022-12-11T20:39:11.672Z,25.12
2022-12-11T20:41:56.626Z,25.77
2022-12-11T20:44:45.648Z,26.00
2022-12-11T20:47:33.958Z,25.20
2022-12-11T20:50:19.021Z,24.79
2022-12-11T20:53:03.926Z,25.69
2022-12-11T20:55:48.812Z,26.07
2022-12-11T20:58:33.692Z,28.12
2022-12-11T21:01:18.589Z,26.51
2022-12-11T21:04:03.415Z,26.93
2022-12-11T21:06:48.393Z,26.82
2022-12-11T21:09:33.480Z,25.36
2022-12-11T21:12:18.448Z,25.89
2022-12-11T21:15:03.259Z,25.74
2022-12-11T21:17:48.121Z,25.64
2022-12-11T21:20:33.069Z,25.06
2022-12-11T21:23:18.012Z,26.15
2022-12-11T21:26:02.981Z,25.31
2022-12-11T21:28:47.794Z,25.19
2022-12-11T21:31:32.717Z,25.66
2022-12-11T21:34:23.558Z,24.97
2022-12-11T21:37:10.304Z,26.17
2022-12-11T21:39:55.217Z,25.49
2022-12-11T21:42:40.121Z,24.92
2022-12-11T21:45:59.702Z,24.77
2022-12-11T21:48:29.993Z,24.01
2022-12-11T21:51:14.971Z,25.50
2022-12-11T21:53:59.866Z,24.12
2022-12-11T21:56:44.736Z,22.85
2022-12-11T21:59:29.539Z,22.70
2022-12-11T22:02:14.430Z,23.04
2022-12-11T22:04:59.343Z,21.74
2022-12-11T22:07:44.240Z,21.64
2022-12-11T22:10:29.076Z,20.89
2022-12-11T22:13:13.876Z,21.53
2022-12-11T22:15:58.882Z,21.51
2022-12-11T22:18:43.639Z,21.92
2022-12-11T22:21:28.497Z,21.62
2022-12-11T22:24:13.320Z,20.56
2022-12-11T22:26:58.311Z,19.99
2022-12-11T22:29:43.172Z,20.44
2022-12-11T22:32:27.952Z,20.41
2022-12-11T22:35:13.252Z,19.84
2022-12-11T22:37:58.305Z,19.83
2022-12-11T22:40:43.233Z,20.03
2022-12-11T22:43:28.060Z,19.09
2022-12-11T22:46:12.885Z,19.35
2022-12-11T22:48:57.671Z,19.60
2022-12-11T22:51:42.726Z,19.05
2022-12-11T22:54:27.537Z,19.01
2022-12-11T22:57:12.602Z,18.84
2022-12-11T22:59:57.439Z,18.51
2022-12-11T23:02:42.426Z,19.32
2022-12-11T23:05:27.800Z,19.16
2022-12-11T23:08:12.826Z,18.35
2022-12-11T23:10:58.077Z,18.35
2022-12-11T23:13:42.929Z,18.06
2022-12-11T23:16:27.842Z,17.60
2022-12-11T23:19:13.131Z,18.43
2022-12-11T23:21:58.036Z,18.52
2022-12-11T23:24:43.122Z,18.83
2022-12-11T23:27:28.038Z,18.62
2022-12-11T23:30:13.005Z,17.43
2022-12-11T23:32:58.005Z,18.53
2022-12-11T23:35:42.866Z,18.10
2022-12-11T23:38:27.649Z,17.59
2022-12-11T23:41:12.583Z,17.05
2022-12-11T23:43:57.420Z,17.48
2022-12-11T23:46:42.308Z,17.01
2022-12-11T23:49:27.179Z,16.58
2022-12-11T23:52:11.936Z,16.80
2022-12-11T23:54:56.816Z,18.10
2022-12-11T23:57:41.642Z,17.20
